createdAt,value
2023-03-04T00:02:16.326Z,98522.34
2023-03-04T00:04:43.041Z,98512.63
2023-03-04T00:07:09.593Z,98517.06
2023-03-04T00:09:36.370Z,98506.63
2023-03-04T00:12:02.936Z,98509.16
2023-03-04T00:14:30.580Z,98503.06
2023-03-04T00:16:57.219Z,98498.72
2023-03-04T00:19:24.024Z,98477.50
2023-03-04T00:21:50.894Z,98493.31
2023-03-04T00:24:17.510Z,98482.88
2023-03-04T00:26:44.384Z,98481.31
2023-03-04T00:29:11.015Z,98476.66
2023-03-04T00:31:37.625Z,98467.78
2023-03-04T00:34:04.286Z,98465.38
2023-03-04T00:36:31.015Z,98460.91
2023-03-04T00:38:57.577Z,98459.03
2023-03-04T00:41:24.152Z,98453.00
2023-03-04T00:43:51.012Z,98408.59
2023-03-04T00:46:17.684Z,98453.88
2023-03-04T00:48:44.295Z,98450.38
2023-03-04T00:51:10.813Z,98447.00
2023-03-04T00:53:37.420Z,98438.16
2023-03-04T00:56:04.188Z,98435.50
2023-03-04T00:58:30.958Z,98428.44
2023-03-04T01:00:58.603Z,98421.47
2023-03-04T01:03:26.888Z,98421.47
2023-03-04T01:05:53.414Z,98406.50
2023-03-04T01:08:19.962Z,98400.34
2023-03-04T01:10:46.490Z,98393.38
2023-03-04T01:13:13.397Z,98391.59
2023-03-04T01:15:39.951Z,98385.47
2023-03-04T01:18:06.637Z,98388.09
2023-03-04T01:20:33.187Z,98381.06
2023-03-04T01:22:59.758Z,98381.88
2023-03-04T01:25:26.534Z,98366.16
2023-03-04T01:27:53.229Z,98363.53
2023-03-04T01:30:19.840Z,98367.00
2023-03-04T01:32:46.439Z,98362.66
2023-03-04T01:35:12.924Z,98361.84
2023-03-04T01:37:39.598Z,98353.94
2023-03-04T01:40:07.063Z,98351.28
2023-03-04T01:42:35.854Z,98338.66
2023-03-04T01:45:03.172Z,98356.56
2023-03-04T01:47:32.618Z,98351.28
2023-03-04T01:50:05.021Z,98343.50
2023-03-04T01:52:31.650Z,98343.38
2023-03-04T01:54:58.471Z,98342.63
2023-03-04T01:57:26.453Z,98335.56
2023-03-04T02:00:20.220Z,98334.72
2023-03-04T02:02:52.666Z,98339.16
2023-03-04T02:05:19.594Z,98332.06
2023-03-04T02:07:46.375Z,98330.41
2023-03-04T02:10:13.175Z,98334.72
2023-03-04T02:12:40.474Z,98337.34
2023-03-04T02:15:08.123Z,98333.06
2023-03-04T02:17:34.879Z,98330.41
2023-03-04T02:20:26.047Z,98317.13
2023-03-04T02:23:11.410Z,98333.06
2023-03-04T02:25:45.559Z,98336.63
2023-03-04T02:28:12.463Z,98334.00
2023-03-04T02:30:39.151Z,98326.91
2023-03-04T02:33:05.972Z,98328.72
2023-03-04T02:35:32.889Z,98314.16
2023-03-04T02:37:59.516Z,98311.22
2023-03-04T02:40:33.412Z,98316.50
2023-03-04T02:43:01.149Z,98307.72
2023-03-04T02:45:36.126Z,98287.28
2023-03-04T02:48:06.224Z,98294.75
2023-03-04T02:50:37.606Z,98280.75
2023-03-04T02:53:04.960Z,98272.19
2023-03-04T02:55:32.267Z,98272.59
2023-03-04T02:57:59.943Z,98269.94
2023-03-04T03:00:27.953Z,98276.06
2023-03-04T03:02:57.010Z,98277.03
2023-03-04T03:05:27.175Z,98276.19
2023-03-04T03:07:55.268Z,98263.22
2023-03-04T03:10:24.139Z,98264.78
2023-03-04T03:12:51.712Z,98270.06
2023-03-04T03:15:20.284Z,98265.63
2023-03-04T03:17:47.366Z,98264.78
2023-03-04T03:20:15.710Z,98266.56
2023-03-04T03:22:42.911Z,98257.81
2023-03-04T03:25:11.661Z,98239.19
2023-03-04T03:27:38.358Z,98246.44
2023-03-04T03:30:06.245Z,98242.56
2023-03-04T03:32:35.782Z,98256.03
2023-03-04T03:35:02.431Z,98255.31
2023-03-04T03:37:29.066Z,98260.59
2023-03-04T03:39:55.551Z,98265.00
2023-03-04T03:42:22.167Z,98259.72
2023-03-04T03:44:50.148Z,98249.28
2023-03-04T03:47:16.766Z,98241.94
2023-03-04T03:49:43.298Z,98258.78
2023-03-04T03:52:10.322Z,98247.28
2023-03-04T03:54:36.813Z,98244.63
2023-03-04T03:57:03.814Z,98242.00
2023-03-04T03:59:30.392Z,98250.75
2023-03-04T04:01:57.056Z,98240.19
2023-03-04T04:04:23.650Z,98246.31
2023-03-04T04:06:50.221Z,98247.16
2023-03-04T04:09:16.731Z,98243.56
2023-03-04T04:11:43.421Z,98241.88
2023-03-04T04:14:13.235Z,98241.75
2023-03-04T04:16:40.111Z,98240.94
2023-03-04T04:19:06.792Z,98229.56
2023-03-04T04:21:33.336Z,98242.75
2023-03-04T04:23:59.831Z,98240.94
2023-03-04T04:26:26.446Z,98244.41
2023-03-04T04:28:52.937Z,98236.47
2023-03-04T04:31:19.485Z,98238.28
2023-03-04T04:33:46.018Z,98248.84
2023-03-04T04:36:16.559Z,98246.09
2023-03-04T04:38:43.844Z,98233.84
2023-03-04T04:41:23.428Z,98238.28
2023-03-04T04:43:50.219Z,98238.28
2023-03-04T04:46:17.455Z,98239.13
2023-03-04T04:48:44.765Z,98240.09
2023-03-04T04:51:11.820Z,98232.19
2023-03-04T04:53:38.874Z,98220.41
2023-03-04T04:56:13.324Z,98227.13
2023-03-04T04:58:40.266Z,98229.56
2023-03-04T05:01:07.355Z,98219.34
2023-03-04T05:03:35.469Z,98222.47
2023-03-04T05:06:02.722Z,98220.16
2023-03-04T05:08:29.387Z,98218.13
2023-03-04T05:10:56.029Z,98219.22
2023-03-04T05:13:22.871Z,98217.31
2023-03-04T05:15:52.161Z,98220.78
2023-03-04T05:18:19.825Z,98214.69
2023-03-04T05:20:50.727Z,98201.94
2023-03-04T05:23:17.338Z,98212.03
2023-03-04T05:25:43.928Z,98190.88
2023-03-04T05:28:13.118Z,98209.41
2023-03-04T05:30:41.078Z,98208.44
2023-03-04T05:33:08.929Z,98208.44
2023-03-04T05:35:36.860Z,98201.50
2023-03-04T05:38:08.713Z,98212.88
2023-03-04T05:40:35.697Z,98210.22
2023-03-04T05:43:02.290Z,98202.44
2023-03-04T05:45:29.157Z,98209.41
2023-03-04T05:47:56.073Z,98205.91
2023-03-04T05:50:23.438Z,98198.09
2023-03-04T05:52:53.155Z,98185.63
2023-03-04T05:55:20.045Z,98199.78
2023-03-04T05:57:46.930Z,98198.09
2023-03-04T06:00:15.637Z,98189.25
2023-03-04T06:02:42.894Z,98198.09
2023-03-04T06:05:11.511Z,98189.38
2023-03-04T06:07:38.155Z,98172.50
2023-03-04T06:10:05.527Z,98195.59
2023-03-04T06:12:32.267Z,98200.00
2023-03-04T06:14:58.882Z,98204.44
2023-03-04T06:17:25.387Z,98208.03
2023-03-04T06:19:51.909Z,98204.56
2023-03-04T06:22:18.461Z,98202.88
2023-03-04T06:24:45.030Z,98200.38
2023-03-04T06:27:11.533Z,98210.69
2023-03-04T06:29:38.191Z,98206.34
2023-03-04T06:32:05.474Z,98201.06
2023-03-04T06:34:33.684Z,98207.22
2023-03-04T06:37:00.728Z,98200.25
2023-03-04T06:39:27.398Z,98202.03
2023-03-04T06:41:53.903Z,98207.41
2023-03-04T06:44:20.674Z,98202.88
2023-03-04T06:46:47.194Z,98202.03
2023-03-04T06:49:13.841Z,98200.13
2023-03-04T06:51:40.384Z,98207.31
2023-03-04T06:54:06.956Z,98202.03
2023-03-04T06:56:33.481Z,98204.66
2023-03-04T06:59:00.040Z,98205.53
2023-03-04T07:01:28.206Z,98202.88
2023-03-04T07:03:55.970Z,98202.03
2023-03-04T07:06:25.606Z,98193.41
2023-03-04T07:08:52.706Z,98211.63
2023-03-04T07:11:19.974Z,98206.34
2023-03-04T07:13:46.668Z,98216.91
2023-03-04T07:16:17.658Z,98198.19
2023-03-04T07:18:44.707Z,98211.88
2023-03-04T07:21:12.042Z,98217.75
2023-03-04T07:23:39.323Z,98225.69
2023-03-04T07:26:06.293Z,98228.31
2023-03-04T07:28:33.447Z,98230.94
2023-03-04T07:31:30.845Z,98231.78
2023-03-04T07:33:59.551Z,98230.09
2023-03-04T07:36:26.498Z,98233.59
2023-03-04T07:38:54.840Z,98233.59
2023-03-04T07:41:23.058Z,98234.28
2023-03-04T07:43:49.868Z,98232.72
2023-03-04T07:46:16.560Z,98234.28
2023-03-04T07:48:43.523Z,98234.22
2023-03-04T07:51:21.977Z,98225.56
2023-03-04T07:53:51.714Z,98237.69
2023-03-04T07:56:21.138Z,98236.72
2023-03-04T07:58:48.739Z,98235.03
2023-03-04T08:01:18.849Z,98236.72
2023-03-04T08:03:46.928Z,98237.56
2023-03-04T08:06:15.652Z,98242.00
2023-03-04T08:08:43.113Z,98243.81
2023-03-04T08:11:19.429Z,98246.44
2023-03-04T08:13:46.788Z,98242.94
2023-03-04T08:16:17.711Z,98250.03
2023-03-04T08:18:45.634Z,98243.91
2023-03-04T08:21:13.121Z,98240.63
2023-03-04T08:23:40.840Z,98251.09
2023-03-04T08:26:13.495Z,98246.78
2023-03-04T08:28:40.273Z,98254.69
2023-03-04T08:31:07.025Z,98258.38
2023-03-04T08:33:34.331Z,98258.38
2023-03-04T08:36:00.911Z,98251.53
2023-03-04T08:38:27.547Z,98248.91
2023-03-04T08:40:55.408Z,98190.66
2023-03-04T08:43:23.223Z,98235.81
2023-03-04T08:45:49.864Z,98241.31
2023-03-04T08:48:17.873Z,98245.53
2023-03-04T08:50:47.154Z,98247.44
2023-03-04T08:53:14.372Z,98247.44
2023-03-04T08:55:42.086Z,98234.06
2023-03-04T08:58:11.956Z,98250.06
2023-03-04T09:00:43.009Z,98245.75
2023-03-04T09:03:12.066Z,98248.38
2023-03-04T09:05:39.109Z,98245.84
2023-03-04T09:08:07.147Z,98238.81
2023-03-04T09:10:34.015Z,98252.00
2023-03-04T09:13:01.686Z,98255.56
2023-03-04T09:15:28.441Z,98252.94
2023-03-04T09:17:55.163Z,98233.72
2023-03-04T09:20:23.077Z,98268.00
2023-03-04T09:22:52.622Z,98268.13
2023-03-04T09:25:19.535Z,98261.06
2023-03-04T09:27:46.127Z,98254.31
2023-03-04T09:30:13.368Z,98262.84
2023-03-04T09:32:41.335Z,98250.94
2023-03-04T09:35:09.985Z,98239.56
2023-03-04T09:37:39.206Z,98249.75
2023-03-04T09:40:09.904Z,98240.19
2023-03-04T09:42:48.544Z,98237.66
2023-03-04T09:45:21.453Z,98237.66
2023-03-04T09:47:51.573Z,98245.56
2023-03-04T09:50:19.912Z,98237.66
2023-03-04T09:53:05.171Z,98233.34
2023-03-04T09:55:37.210Z,98225.44
2023-03-04T09:58:37.453Z,98235.13
2023-03-04T10:01:20.436Z,98233.44
2023-03-04T10:03:53.305Z,98225.66
2023-03-04T10:06:22.009Z,98229.97
2023-03-04T10:09:01.612Z,98230.72
2023-03-04T10:11:34.012Z,98238.25
2023-03-04T10:14:04.753Z,98234.34
2023-03-04T10:17:24.566Z,98233.78
2023-03-04T10:20:09.842Z,98224.72
2023-03-04T10:22:43.946Z,98174.94
2023-03-04T10:25:29.519Z,98237.22
2023-03-04T10:28:04.890Z,98225.59
2023-03-04T10:31:13.489Z,98214.94
2023-03-04T10:33:41.063Z,98227.91
2023-03-04T10:36:25.962Z,98221.69
2023-03-04T10:39:00.022Z,98223.47
2023-03-04T10:41:29.332Z,98220.81
2023-03-04T10:44:04.171Z,98212.22
2023-03-04T10:46:31.855Z,98212.22
2023-03-04T10:48:59.090Z,98216.63
2023-03-04T10:51:28.938Z,98211.47
2023-03-04T10:54:05.447Z,98185.88
2023-03-04T10:56:38.984Z,98193.94
2023-03-04T10:59:33.480Z,98194.91
2023-03-04T11:02:02.600Z,98186.16
2023-03-04T11:04:34.332Z,98186.28
2023-03-04T11:07:00.999Z,98188.91
2023-03-04T11:09:32.134Z,98195.13
2023-03-04T11:12:04.746Z,98183.72
2023-03-04T11:14:39.617Z,98190.69
2023-03-04T11:17:29.138Z,98197.66
2023-03-04T11:20:18.334Z,98182.78
2023-03-04T11:22:49.863Z,98173.53
2023-03-04T11:26:02.618Z,98182.91
2023-03-04T11:28:52.453Z,98180.25
2023-03-04T11:31:23.543Z,98174.16
2023-03-04T11:34:02.228Z,98178.56
2023-03-04T11:36:50.830Z,98170.66
2023-03-04T11:39:24.345Z,98164.56
2023-03-04T11:42:24.545Z,98157.59
2023-03-04T11:44:52.505Z,98155.91
2023-03-04T11:47:50.798Z,98148.00
2023-03-04T11:50:27.520Z,98142.84
2023-03-04T11:53:03.287Z,98144.53
2023-03-04T11:55:39.530Z,98148.94
2023-03-04T11:58:18.300Z,98151.59
2023-03-04T12:01:25.468Z,98142.84
2023-03-04T12:04:01.327Z,98148.13
2023-03-04T12:07:02.132Z,98139.47
2023-03-04T12:09:41.746Z,98146.44
2023-03-04T12:12:29.554Z,98143.91
2023-03-04T12:15:08.081Z,98130.44
2023-03-04T12:17:40.507Z,98141.28
2023-03-04T12:20:34.977Z,98137.78
2023-03-04T12:23:27.040Z,98135.13
2023-03-04T12:26:30.902Z,98134.31
2023-03-04T12:28:57.785Z,98139.59
2023-03-04T12:31:39.488Z,98141.38
2023-03-04T12:34:24.885Z,98142.34
2023-03-04T12:37:26.759Z,98136.09
2023-03-04T12:40:08.348Z,98131.88
2023-03-04T12:43:11.159Z,98126.53
2023-03-04T12:45:52.633Z,98120.22
2023-03-04T12:48:33.521Z,98130.13
2023-03-04T12:51:09.726Z,98118.69
2023-03-04T12:53:51.035Z,98114.75
2023-03-04T12:56:33.246Z,98117.88
2023-03-04T12:59:00.435Z,98116.94
2023-03-04T13:01:37.555Z,98110.09
2023-03-04T13:04:34.337Z,98121.13
2023-03-04T13:07:22.666Z,98107.09
2023-03-04T13:09:57.376Z,98107.09
2023-03-04T13:12:24.966Z,98101.72
2023-03-04T13:15:09.581Z,98106.75
2023-03-04T13:17:46.450Z,98104.00
2023-03-04T13:20:31.115Z,98101.97
2023-03-04T13:23:05.321Z,98098.28
2023-03-04T13:25:44.114Z,98098.38
2023-03-04T13:28:11.049Z,98100.53
2023-03-04T13:30:40.459Z,98099.47
2023-03-04T13:33:13.528Z,98090.47
2023-03-04T13:35:51.407Z,98100.94
2023-03-04T13:38:34.966Z,98099.13
2023-03-04T13:41:20.043Z,98101.78
2023-03-04T13:43:54.388Z,98091.22
2023-03-04T13:46:21.075Z,98095.66
2023-03-04T13:48:50.554Z,98093.03
2023-03-04T13:51:30.476Z,98093.84
2023-03-04T13:53:59.996Z,98090.25
2023-03-04T13:56:28.920Z,98083.19
2023-03-04T13:59:07.553Z,98079.59
2023-03-04T14:01:45.968Z,98082.22
2023-03-04T14:04:21.534Z,98080.44
2023-03-04T14:06:49.816Z,98086.78
2023-03-04T14:09:23.222Z,98078.03
2023-03-04T14:11:52.522Z,98080.78
2023-03-04T14:14:24.469Z,98079.34
2023-03-04T14:16:56.139Z,98073.09
2023-03-04T14:19:43.907Z,98059.06
2023-03-04T14:22:28.013Z,98074.16
2023-03-04T14:25:13.095Z,98075.25
2023-03-04T14:27:40.076Z,98084.97
2023-03-04T14:30:26.112Z,98079.91
2023-03-04T14:33:02.276Z,98077.28
2023-03-04T14:35:31.116Z,98076.44
2023-03-04T14:38:07.274Z,98075.69
2023-03-04T14:40:40.486Z,98086.25
2023-03-04T14:43:16.202Z,98082.78
2023-03-04T14:45:44.854Z,98073.19
2023-03-04T14:48:20.469Z,98073.19
2023-03-04T14:50:51.611Z,98076.78
2023-03-04T14:53:21.587Z,98070.69
2023-03-04T14:56:08.658Z,98070.69
2023-03-04T14:58:51.344Z,98071.63
2023-03-04T15:01:23.305Z,98061.06
2023-03-04T15:04:00.637Z,98069.13
2023-03-04T15:06:33.198Z,98066.56
2023-03-04T15:09:02.028Z,98058.16
2023-03-04T15:11:45.920Z,98065.88
2023-03-04T15:14:43.369Z,98065.00
2023-03-04T15:17:33.874Z,98065.88
2023-03-04T15:20:00.450Z,98063.31
2023-03-04T15:22:27.271Z,98072.09
2023-03-04T15:24:53.938Z,98062.50
2023-03-04T15:27:24.125Z,98064.31
2023-03-04T15:29:55.877Z,98042.94
2023-03-04T15:32:27.181Z,98056.47
2023-03-04T15:34:53.827Z,98062.63
2023-03-04T15:37:26.963Z,98059.13
2023-03-04T15:39:56.310Z,98057.44
2023-03-04T15:42:23.261Z,98054.78
2023-03-04T15:44:50.134Z,98054.91
2023-03-04T15:47:16.714Z,98067.16
2023-03-04T15:49:44.571Z,98062.84
2023-03-04T15:52:18.795Z,98053.22
2023-03-04T15:54:46.495Z,98066.31
2023-03-04T15:57:31.675Z,98058.41
2023-03-04T15:59:58.363Z,98054.78
2023-03-04T16:02:30.503Z,98045.09
2023-03-04T16:04:57.191Z,98039.84
2023-03-04T16:07:28.473Z,98032.38
2023-03-04T16:10:02.503Z,98042.47
2023-03-04T16:12:29.294Z,98036.34
2023-03-04T16:14:56.160Z,98045.22
2023-03-04T16:17:22.796Z,98040.66
2023-03-04T16:19:49.383Z,98047.75
2023-03-04T16:22:19.775Z,98051.22
2023-03-04T16:24:49.255Z,98045.09
2023-03-04T16:27:17.882Z,98046.06
2023-03-04T16:29:44.694Z,98046.06
2023-03-04T16:32:14.143Z,98053.03
2023-03-04T16:34:40.913Z,98063.69
2023-03-04T16:37:13.913Z,98055.78
2023-03-04T16:39:45.977Z,98063.91
2023-03-04T16:42:16.037Z,98069.91
2023-03-04T16:44:43.120Z,98060.31
2023-03-04T16:47:09.685Z,98055.03
2023-03-04T16:49:36.420Z,98067.41
2023-03-04T16:52:03.408Z,98057.69
2023-03-04T16:54:33.129Z,98063.91
2023-03-04T16:57:01.139Z,98057.81
2023-03-04T16:59:28.953Z,98067.41
2023-03-04T17:01:56.193Z,98061.25
2023-03-04T17:04:23.030Z,98056.94
2023-03-04T17:06:49.767Z,98063.06
2023-03-04T17:09:16.426Z,98065.72
2023-03-04T17:11:43.158Z,98059.59
2023-03-04T17:14:09.851Z,98062.22
2023-03-04T17:16:36.533Z,98052.63
2023-03-04T17:19:03.211Z,98049.03
2023-03-04T17:21:29.744Z,98050.00
2023-03-04T17:23:56.339Z,98038.41
2023-03-04T17:26:23.048Z,98045.22
2023-03-04T17:28:50.662Z,98049.31
2023-03-04T17:33:30.203Z,98056.88
2023-03-04T17:35:58.248Z,98045.13
2023-03-04T17:38:24.837Z,98049.31
2023-03-04T17:40:51.650Z,98047.31
2023-03-04T17:43:20.814Z,98041.81
2023-03-04T17:45:50.210Z,98037.13
2023-03-04T17:48:16.982Z,98036.88
2023-03-04T17:50:50.847Z,98048.19
2023-03-04T17:53:20.648Z,98049.59
2023-03-04T17:55:55.737Z,98055.63
2023-03-04T17:58:26.073Z,98062.47
2023-03-04T18:00:55.665Z,98058.38
2023-03-04T18:03:23.483Z,98062.34
2023-03-04T18:05:50.098Z,98068.94
2023-03-04T18:08:16.678Z,98063.41
2023-03-04T18:10:43.391Z,98060.69
2023-03-04T18:13:10.126Z,98068.34
2023-03-04T18:15:36.771Z,98061.19
2023-03-04T18:18:03.635Z,98069.81
2023-03-04T18:20:30.205Z,98068.88
2023-03-04T18:22:58.661Z,98068.63
2023-03-04T18:25:28.403Z,98066.59
2023-03-04T18:27:54.950Z,98055.91
2023-03-04T18:30:27.140Z,98058.44
2023-03-04T18:32:56.080Z,98057.47
2023-03-04T18:35:25.858Z,98058.22
2023-03-04T18:37:52.535Z,98056.28
2023-03-04T18:40:19.222Z,98054.47
2023-03-04T18:42:45.942Z,98048.94
2023-03-04T18:45:13.712Z,98036.47
2023-03-04T18:47:43.882Z,98027.59
2023-03-04T18:50:10.920Z,98024.00
2023-03-04T18:52:37.661Z,98026.50
2023-03-04T18:55:04.662Z,98034.31
2023-03-04T18:57:31.659Z,98027.00
2023-03-04T19:00:00.435Z,98048.38
2023-03-04T19:02:56.005Z,98048.25
2023-03-04T19:05:27.504Z,98040.06
2023-03-04T19:07:54.448Z,98022.53
2023-03-04T19:10:21.856Z,98045.47
2023-03-04T19:12:48.617Z,98049.78
2023-03-04T19:15:18.573Z,98044.38
2023-03-04T19:17:47.799Z,98046.06
2023-03-04T19:20:16.064Z,98043.69
2023-03-04T19:22:43.304Z,98045.34
2023-03-04T19:25:10.355Z,98050.28
2023-03-04T19:27:37.048Z,98048.84
2023-03-04T19:32:20.321Z,98054.47
2023-03-04T19:34:47.539Z,98048.22
2023-03-04T19:37:15.405Z,98048.09
2023-03-04T19:39:46.082Z,98050.75
2023-03-04T19:42:13.298Z,98055.06
2023-03-04T19:44:44.719Z,98047.13
2023-03-04T19:47:11.552Z,98054.94
2023-03-04T19:49:40.117Z,98056.63
2023-03-04T19:52:15.163Z,98053.97
2023-03-04T19:54:43.977Z,98055.66
2023-03-04T19:57:10.650Z,98053.84
2023-03-04T19:59:40.358Z,98054.72
2023-03-04T20:02:08.273Z,98047.41
2023-03-04T20:04:38.353Z,98061.69
2023-03-04T20:07:05.017Z,98069.47
2023-03-04T20:09:32.120Z,98066.84
2023-03-04T20:11:59.599Z,98059.84
2023-03-04T20:14:27.007Z,98060.59
2023-03-04T20:16:53.781Z,98064.06
2023-03-04T20:19:20.601Z,98061.53
2023-03-04T20:21:47.250Z,98058.31
2023-03-04T20:24:15.122Z,98063.34
2023-03-04T20:26:42.293Z,98069.47
2023-03-04T20:29:16.589Z,98070.28
2023-03-04T20:31:59.318Z,98066.84
2023-03-04T20:34:27.101Z,98064.19
2023-03-04T20:36:53.894Z,98058.19
2023-03-04T20:39:29.786Z,98067.56
2023-03-04T20:41:58.386Z,98070.19
2023-03-04T20:44:29.130Z,98055.19
2023-03-04T20:46:58.559Z,98052.66
2023-03-04T20:49:31.580Z,98064.66
2023-03-04T20:52:09.130Z,98062.00
2023-03-04T20:54:38.644Z,98060.22
2023-03-04T20:57:08.531Z,98050.50
2023-03-04T20:59:39.755Z,98055.66
2023-03-04T21:02:14.916Z,98051.09
2023-03-04T21:04:41.872Z,98059.84
2023-03-04T21:07:12.628Z,98072.09
2023-03-04T21:09:43.790Z,98061.31
2023-03-04T21:12:12.746Z,98081.56
2023-03-04T21:14:39.990Z,98084.22
2023-03-04T21:17:07.308Z,98085.44
2023-03-04T21:19:38.047Z,98098.16
2023-03-04T21:22:04.787Z,98098.16
2023-03-04T21:24:34.221Z,98102.47
2023-03-04T21:27:01.583Z,98094.44
2023-03-04T21:29:28.217Z,98092.66
2023-03-04T21:31:58.119Z,98097.94
2023-03-04T21:34:29.507Z,98081.84
2023-03-04T21:36:56.573Z,98096.47
2023-03-04T21:39:24.968Z,98103.09
2023-03-04T21:41:52.003Z,98109.19
2023-03-04T21:44:28.476Z,98099.47
2023-03-04T21:47:01.174Z,98100.31
2023-03-04T21:49:28.473Z,98095.03
2023-03-04T21:51:55.160Z,98089.75
2023-03-04T21:54:21.872Z,98076.19
2023-03-04T21:56:50.137Z,98090.47
2023-03-04T21:59:20.006Z,98069.22
2023-03-04T22:01:46.819Z,98080.72
2023-03-04T22:04:13.508Z,98080.72
2023-03-04T22:06:41.457Z,98078.94
2023-03-04T22:09:08.400Z,98078.09
2023-03-04T22:11:35.098Z,98077.13
2023-03-04T22:14:02.853Z,98078.81
2023-03-04T22:16:30.615Z,98077.84
2023-03-04T22:18:57.618Z,98075.22
2023-03-04T22:21:24.258Z,98070.78
2023-03-04T22:23:51.196Z,98076.91
2023-03-04T22:26:29.846Z,98076.78
2023-03-04T22:28:56.671Z,98073.28
2023-03-04T22:31:30.338Z,98068.00
2023-03-04T22:33:56.917Z,98072.34
2023-03-04T22:36:23.775Z,98067.06
2023-03-04T22:38:50.968Z,98065.38
2023-03-04T22:41:19.748Z,98061.75
2023-03-04T22:43:50.202Z,98066.31
2023-03-04T22:46:24.835Z,98067.91
2023-03-04T22:48:53.076Z,98068.13
2023-03-04T22:51:20.704Z,98079.31
2023-03-04T22:53:48.521Z,98076.66
2023-03-04T22:56:15.683Z,98066.69
2023-03-04T22:58:44.757Z,98078.47
2023-03-04T23:01:13.296Z,98074.03
2023-03-04T23:03:41.494Z,98076.78
2023-03-04T23:06:17.600Z,98082.91
2023-03-04T23:08:46.530Z,98084.59
2023-03-04T23:11:21.058Z,98089.06
2023-03-04T23:13:50.218Z,98087.38
2023-03-04T23:16:18.135Z,98084.72
2023-03-04T23:18:48.927Z,98086.41
2023-03-04T23:21:21.670Z,98089.88
2023-03-04T23:23:48.994Z,98093.47
2023-03-04T23:26:24.777Z,98087.38
2023-03-04T23:28:54.253Z,98099.72
2023-03-04T23:31:20.814Z,98101.53
2023-03-04T23:33:48.420Z,98104.19
2023-03-04T23:36:18.572Z,98104.19
2023-03-04T23:38:47.741Z,98106.81
2023-03-04T23:41:17.554Z,98110.41
2023-03-04T23:43:44.384Z,98106.94
2023-03-04T23:46:14.129Z,98092.25
2023-03-04T23:48:46.357Z,98095.41
2023-03-04T23:51:18.078Z,98094.56
2023-03-04T23:53:45.573Z,98092.84
2023-03-04T23:56:17.770Z,98101.72
2023-03-04T23:58:44.541Z,98096.44
